Time;durP1;ratioP1;P1;durP2;ratioP2;P2;SDS_P1;SDS_P2;PMS_P1;PMS_P2;Temp;Humidity;BMP_temperature;BMP_pressure;BME280_temperature;BME280_humidity;BME280_pressure;Samples;Min_cycle;Max_cycle;Signal;HPM_P1;HPM_P2
2022/06/24 00:01:40;;;;;;;6.82;3.28;;;14.50;99.90;;;;;;5072101;28;20167;-82
2022/06/24 00:04:06;;;;;;;4.38;2.85;;;14.40;99.90;;;;;;5071228;28;20187;-81
2022/06/24 00:06:46;;;;;;;4.78;3.03;;;14.40;99.90;;;;;;5072398;28;20182;-81
2022/06/24 00:09:13;;;;;;;4.88;3.08;;;14.40;99.90;;;;;;5071224;28;20190;-82
2022/06/24 00:11:39;;;;;;;5.20;3.20;;;14.30;99.90;;;;;;5071051;28;20205;-81
2022/06/24 00:14:11;;;;;;;4.95;3.45;;;14.30;99.90;;;;;;5070615;28;20229;-82
2022/06/24 00:16:57;;;;;;;6.50;3.30;;;14.60;99.90;;;;;;5071922;28;20583;-82
2022/06/24 00:19:25;;;;;;;6.28;3.35;;;14.20;99.90;;;;;;5071645;28;20175;-82
2022/06/24 00:22:12;;;;;;;6.15;3.30;;;14.20;99.90;;;;;;5072452;28;20171;-81
2022/06/24 00:24:39;;;;;;;3.47;2.78;;;14.20;99.90;;;;;;5071108;28;20644;-82
2022/06/24 00:27:20;;;;;;;6.88;3.08;;;14.20;99.90;;;;;;5072499;28;20183;-81
2022/06/24 00:29:47;;;;;;;3.55;3.05;;;14.10;99.90;;;;;;5072069;28;20167;-82
2022/06/24 00:32:13;;;;;;;5.38;2.83;;;14.10;99.90;;;;;;5071514;28;20624;-81
2022/06/24 00:34:40;;;;;;;7.22;3.30;;;14.10;99.90;;;;;;5070792;28;20181;-81
2022/06/24 00:37:26;;;;;;;4.68;3.20;;;14.00;99.90;;;;;;5072260;28;20252;-81
2022/06/24 00:39:58;;;;;;;5.55;3.10;;;14.10;99.90;;;;;;5071941;28;20199;-83
2022/06/24 00:42:24;;;;;;;4.50;2.50;;;14.00;99.90;;;;;;5074191;28;20632;-82
2022/06/24 00:44:56;;;;;;;6.80;3.45;;;14.00;99.90;;;;;;5075951;28;20171;-82
2022/06/24 00:47:23;;;;;;;4.90;2.65;;;13.90;99.90;;;;;;5075985;28;20209;-82
2022/06/24 00:49:53;;;;;;;5.55;2.85;;;13.90;99.90;;;;;;5074713;28;20167;-82
2022/06/24 00:52:19;;;;;;;4.72;3.20;;;13.90;99.90;;;;;;5075511;28;20540;-81
2022/06/24 00:54:45;;;;;;;3.42;2.45;;;13.90;99.90;;;;;;5075436;28;20231;-82
2022/06/24 00:57:11;;;;;;;5.18;2.92;;;13.90;99.90;;;;;;5074405;28;20215;-82
2022/06/24 00:59:38;;;;;;;6.35;2.90;;;14.00;99.90;;;;;;5075421;28;20268;-82
2022/06/24 01:02:07;;;;;;;4.57;3.10;;;13.90;99.90;;;;;;5073787;28;20194;-82
2022/06/24 01:04:34;;;;;;;7.05;3.13;;;13.90;99.90;;;;;;5074191;28;20175;-82
2022/06/24 01:07:00;;;;;;;5.43;2.95;;;13.80;99.90;;;;;;5074251;28;20544;-82
2022/06/24 01:09:26;;;;;;;5.25;3.38;;;13.80;99.90;;;;;;5075515;28;20175;-81
2022/06/24 01:11:53;;;;;;;6.78;3.40;;;13.80;99.90;;;;;;5075600;28;20183;-81
2022/06/24 01:14:18;;;;;;;5.68;3.00;;;13.80;99.90;;;;;;5074227;28;20636;-82
2022/06/24 01:16:44;;;;;;;6.25;3.80;;;13.80;99.90;;;;;;5056785;28;20210;-82
2022/06/24 01:19:12;;;;;;;4.45;3.22;;;13.70;99.90;;;;;;5073589;28;20175;-82
2022/06/24 01:21:49;;;;;;;7.30;2.67;;;13.70;99.90;;;;;;5074636;28;20187;-82
2022/06/24 01:24:20;;;;;;;4.68;3.08;;;13.60;99.90;;;;;;5075065;28;20163;-82
2022/06/24 01:26:55;;;;;;;4.70;2.95;;;13.60;99.90;;;;;;5075194;28;20225;-82
2022/06/24 01:29:21;;;;;;;5.68;3.13;;;13.60;99.90;;;;;;5075472;28;20170;-81
2022/06/24 01:31:48;;;;;;;8.48;3.53;;;13.30;99.90;;;;;;5074900;28;20237;-82
2022/06/24 01:34:16;;;;;;;6.60;3.75;;;14.80;99.90;;;;;;5075106;28;20297;-81
2022/06/24 01:36:41;;;;;;;6.40;3.03;;;13.50;99.90;;;;;;5073267;28;20207;-82
2022/06/24 01:39:07;;;;;;;8.90;3.60;;;13.40;99.90;;;;;;5073459;28;20610;-81
2022/06/24 01:41:33;;;;;;;4.07;2.80;;;13.40;99.90;;;;;;5073364;28;20254;-83
2022/06/24 01:43:59;;;;;;;3.90;2.55;;;14.90;99.90;;;;;;5073292;28;20657;-81
2022/06/24 01:46:25;;;;;;;5.18;3.10;;;13.40;99.90;;;;;;5073619;28;20191;-81
2022/06/24 01:48:51;;;;;;;6.20;3.40;;;13.50;99.90;;;;;;5055772;28;20576;-81
2022/06/24 01:51:18;;;;;;;6.85;3.85;;;13.80;99.90;;;;;;5074350;28;20183;-81
2022/06/24 01:53:44;;;;;;;4.35;3.08;;;13.20;99.90;;;;;;5072909;28;20203;-81
2022/06/24 01:56:10;;;;;;;5.45;3.42;;;13.30;99.90;;;;;;5073624;28;20245;-81
2022/06/24 01:58:35;;;;;;;4.28;3.35;;;13.20;99.90;;;;;;5073103;28;20705;-82
2022/06/24 02:01:01;;;;;;;5.43;3.53;;;13.20;99.90;;;;;;5072429;28;20211;-82
2022/06/24 02:03:29;;;;;;;10.48;3.65;;;13.10;99.90;;;;;;5056655;28;20573;-81
2022/06/24 02:05:59;;;;;;;5.63;3.05;;;13.70;99.90;;;;;;5072897;28;20379;-82
2022/06/24 02:08:24;;;;;;;5.88;3.88;;;13.20;99.90;;;;;;5073560;28;20172;-82
2022/06/24 02:13:34;;;;;;;6.90;3.35;;;13.20;99.90;;;;;;5073867;28;20190;-82
2022/06/24 02:16:04;;;;;;;6.32;3.65;;;15.00;99.90;;;;;;5079841;28;20566;-81
2022/06/24 02:18:31;;;;;;;7.57;3.78;;;13.20;99.90;;;;;;5080712;28;20373;-81
2022/06/24 02:20:58;;;;;;;7.03;3.80;;;13.10;99.90;;;;;;5079424;28;20171;-82
2022/06/24 02:23:24;;;;;;;5.00;3.28;;;13.40;99.90;;;;;;5082861;28;20180;-82
2022/06/24 02:25:51;;;;;;;9.77;4.30;;;13.10;99.90;;;;;;5079802;28;20179;-82
2022/06/24 02:28:17;;;;;;;6.97;3.72;;;13.10;99.90;;;;;;5074082;28;20256;-82
2022/06/24 02:30:44;;;;;;;6.95;3.85;;;13.10;99.90;;;;;;5073221;28;20202;-82
2022/06/24 02:33:11;;;;;;;7.38;3.70;;;13.10;99.90;;;;;;5072808;28;20628;-82
2022/06/24 02:35:38;;;;;;;4.72;3.33;;;13.30;99.90;;;;;;5056180;28;20567;-81
2022/06/24 02:38:04;;;;;;;5.22;3.67;;;13.10;99.90;;;;;;5073466;28;20190;-82
2022/06/24 02:40:45;;;;;;;6.10;3.78;;;13.10;99.90;;;;;;5073608;28;20171;-82
2022/06/24 02:43:32;;;;;;;6.03;3.25;;;13.10;99.90;;;;;;5072662;28;20159;-82
2022/06/24 02:46:00;;;;;;;7.28;3.83;;;13.10;99.90;;;;;;5073207;28;20160;-82
2022/06/24 02:48:26;;;;;;;5.85;3.70;;;13.10;99.90;;;;;;5072894;28;20204;-81
2022/06/24 02:50:54;;;;;;;6.30;3.42;;;13.20;99.90;;;;;;5073369;28;20262;-82
2022/06/24 02:53:20;;;;;;;6.40;3.38;;;13.20;99.90;;;;;;5073584;28;20183;-81
2022/06/24 02:55:50;;;;;;;4.32;3.20;;;13.20;99.90;;;;;;5071032;28;20256;-82
2022/06/24 02:58:16;;;;;;;7.25;3.47;;;13.20;99.90;;;;;;5072435;28;20183;-82
2022/06/24 03:00:42;;;;;;;4.15;3.22;;;13.20;99.90;;;;;;5072369;28;20203;-84
2022/06/24 03:03:09;;;;;;;7.32;3.88;;;13.20;99.90;;;;;;5070986;28;20278;-81
2022/06/24 03:05:35;;;;;;;8.27;3.47;;;13.20;99.90;;;;;;5072408;28;20190;-81
2022/06/24 03:08:01;;;;;;;5.78;3.28;;;13.30;99.90;;;;;;5073475;28;20175;-81
2022/06/24 03:10:26;;;;;;;6.22;3.40;;;13.30;99.90;;;;;;5072044;28;20171;-81
2022/06/24 03:12:52;;;;;;;5.25;2.50;;;13.50;99.90;;;;;;5071998;28;20203;-82
2022/06/24 03:15:18;;;;;;;5.43;3.25;;;13.40;99.90;;;;;;5073079;28;20211;-81
2022/06/24 03:17:44;;;;;;;8.20;3.38;;;13.50;99.90;;;;;;5070015;28;20293;-82
2022/06/24 03:20:10;;;;;;;3.50;2.65;;;13.50;99.90;;;;;;5071622;28;20223;-82
2022/06/24 03:22:36;;;;;;;5.80;3.25;;;13.50;99.90;;;;;;5071464;28;20183;-82
2022/06/24 03:25:03;;;;;;;8.65;3.58;;;13.60;99.90;;;;;;5055079;28;20179;-81
2022/06/24 03:27:28;;;;;;;5.85;3.20;;;13.70;99.90;;;;;;5072880;28;20183;-82
2022/06/24 03:29:54;;;;;;;6.28;3.08;;;13.80;99.90;;;;;;5054433;28;20183;-81
2022/06/24 03:32:20;;;;;;;4.57;2.97;;;13.80;99.90;;;;;;5073875;28;20176;-81
2022/06/24 03:34:46;;;;;;;6.38;3.50;;;14.00;99.90;;;;;;5072757;28;20569;-82
2022/06/24 03:37:11;;;;;;;5.65;3.20;;;14.00;99.90;;;;;;5073083;28;20603;-81
2022/06/24 03:39:37;;;;;;;5.07;3.13;;;14.00;99.90;;;;;;5073015;28;20175;-81
2022/06/24 03:42:03;;;;;;;5.65;3.40;;;14.10;99.90;;;;;;5070723;28;20221;-81
2022/06/24 03:44:29;;;;;;;6.45;3.72;;;14.20;99.90;;;;;;5072552;28;20175;-81
2022/06/24 03:46:55;;;;;;;5.75;3.67;;;14.30;99.90;;;;;;5072330;28;20191;-81
2022/06/24 03:49:21;;;;;;;7.13;3.42;;;14.40;99.90;;;;;;5072641;28;20171;-81
2022/06/24 03:51:47;;;;;;;6.47;3.30;;;14.50;99.90;;;;;;5054244;28;20546;-81
2022/06/24 03:54:13;;;;;;;7.13;3.45;;;14.60;99.90;;;;;;5072598;28;20273;-81
2022/06/24 03:56:39;;;;;;;4.68;3.22;;;14.70;99.90;;;;;;5073055;28;20215;-81
2022/06/24 03:59:04;;;;;;;5.95;3.58;;;14.90;99.90;;;;;;5071886;28;20524;-82
2022/06/24 04:01:30;;;;;;;4.85;3.35;;;14.90;99.90;;;;;;5064237;28;20186;-82
2022/06/24 04:03:56;;;;;;;5.43;3.60;;;15.00;99.90;;;;;;5047030;28;20705;-83
2022/06/24 04:06:22;;;;;;;8.80;3.60;;;15.20;99.90;;;;;;5069727;28;20195;-82
2022/06/24 04:08:48;;;;;;;6.97;3.88;;;15.30;99.90;;;;;;5069655;28;20670;-81
2022/06/24 04:11:15;;;;;;;9.52;5.20;;;15.40;99.90;;;;;;5069582;28;20180;-82
2022/06/24 04:13:41;;;;;;;7.35;4.32;;;15.50;99.90;;;;;;5069594;28;20252;-82
2022/06/24 04:16:07;;;;;;;7.10;4.18;;;15.70;99.90;;;;;;5073689;28;20680;-81
2022/06/24 04:18:33;;;;;;;5.55;3.53;;;15.80;99.90;;;;;;5073361;28;20230;-82
2022/06/24 04:20:59;;;;;;;6.40;3.35;;;15.90;99.90;;;;;;5073003;28;20217;-81
2022/06/24 04:23:26;;;;;;;4.20;3.20;;;16.00;99.90;;;;;;5067245;28;20194;-82
2022/06/24 04:25:51;;;;;;;5.80;3.65;;;16.10;99.90;;;;;;5067467;28;20183;-81
2022/06/24 04:28:17;;;;;;;7.57;3.20;;;16.20;99.90;;;;;;5067044;28;20214;-82
2022/06/24 04:30:43;;;;;;;4.50;3.22;;;16.30;99.90;;;;;;5067573;28;20586;-84
2022/06/24 04:33:09;;;;;;;5.00;2.67;;;16.40;99.90;;;;;;5065620;28;20304;-83
2022/06/24 04:35:35;;;;;;;4.40;2.85;;;16.60;99.90;;;;;;5063742;28;20207;-82
2022/06/24 04:38:01;;;;;;;5.07;2.97;;;;;;;;;;5042885;28;20206;-82
2022/06/24 04:40:27;;;;;;;4.13;2.60;;;16.80;99.90;;;;;;5066494;28;20171;-82
2022/06/24 04:42:53;;;;;;;4.60;3.08;;;17.00;99.90;;;;;;5057853;28;20553;-81
2022/06/24 04:45:18;;;;;;;4.43;2.83;;;17.30;99.90;;;;;;5060960;28;20252;-82
2022/06/24 04:47:44;;;;;;;2.67;2.42;;;17.30;99.90;;;;;;5053495;28;20184;-82
2022/06/24 04:50:10;;;;;;;3.58;2.65;;;17.60;99.90;;;;;;5060207;28;20222;-81
2022/06/24 04:52:38;;;;;;;3.22;2.20;;;17.80;99.90;;;;;;5058852;28;20271;-84
2022/06/24 04:55:04;;;;;;;4.55;2.53;;;17.90;99.90;;;;;;5059301;28;20207;-85
2022/06/24 04:57:30;;;;;;;3.05;1.98;;;18.20;99.90;;;;;;5057173;28;20593;-85
2022/06/24 04:59:56;;;;;;;7.57;3.40;;;;;;;;;;5052171;28;20180;-85
2022/06/24 05:02:22;;;;;;;3.10;2.40;;;;;;;;;;5061160;28;20266;-84
2022/06/24 05:04:48;;;;;;;4.60;2.88;;;;;;;;;;5056301;28;20267;-84
2022/06/24 05:07:14;;;;;;;3.72;2.38;;;18.30;99.90;;;;;;5059434;28;20574;-83
2022/06/24 05:09:40;;;;;;;4.55;2.40;;;18.30;99.90;;;;;;5055604;28;20172;-84
2022/06/24 05:12:06;;;;;;;5.22;2.53;;;18.50;99.90;;;;;;5065785;28;20244;-84
2022/06/24 05:14:32;;;;;;;3.38;2.22;;;18.60;99.90;;;;;;5072181;28;20211;-85
2022/06/24 05:16:58;;;;;;;3.17;2.10;;;18.70;99.90;;;;;;5072125;28;20218;-84
2022/06/24 05:19:23;;;;;;;3.08;1.85;;;18.90;99.90;;;;;;5056097;28;20309;-85
2022/06/24 05:21:49;;;;;;;3.72;2.55;;;19.00;99.90;;;;;;5066715;28;20678;-85
2022/06/24 05:24:16;;;;;;;2.42;1.60;;;19.20;99.90;;;;;;5061175;28;20171;-86
2022/06/24 05:26:42;;;;;;;3.65;2.35;;;19.40;99.90;;;;;;5073317;28;20206;-84
2022/06/24 05:29:08;;;;;;;1.83;1.40;;;19.50;99.90;;;;;;5072312;28;20191;-86
2022/06/24 05:31:35;;;;;;;1.65;1.08;;;19.70;99.90;;;;;;5064767;28;20184;-86
2022/06/24 05:34:00;;;;;;;5.75;1.13;;;19.90;99.90;;;;;;5060919;28;20184;-87
2022/06/24 05:36:26;;;;;;;2.10;1.25;;;20.00;99.90;;;;;;5060355;28;20212;-86
2022/06/24 05:38:51;;;;;;;1.65;1.10;;;20.20;99.90;;;;;;5063616;28;20241;-86
2022/06/24 05:41:17;;;;;;;1.30;1.20;;;20.40;99.90;;;;;;5061985;28;20199;-87
2022/06/24 05:43:45;;;;;;;1.88;1.02;;;20.70;99.90;;;;;;5063991;28;20516;-86
2022/06/24 05:46:12;;;;;;;1.95;1.25;;;20.60;99.90;;;;;;5049069;28;20302;-86
2022/06/24 05:48:38;;;;;;;6.00;1.50;;;18.90;99.90;;;;;;5081381;28;20286;-86
2022/06/24 05:51:12;;;;;;;2.08;1.30;;;20.90;99.90;;;;;;5040379;28;20647;-89
2022/06/24 05:56:23;;;;;;;1.35;1.13;;;;;;;;;;5064132;28;20226;-86
2022/06/24 05:58:49;;;;;;;1.35;1.25;;;21.50;99.90;;;;;;5063015;28;20180;-86
2022/06/24 06:01:15;;;;;;;4.10;1.20;;;21.30;99.90;;;;;;5049373;28;20189;-86
2022/06/24 06:03:41;;;;;;;3.90;2.00;;;21.40;99.90;;;;;;5074701;28;20672;-86
2022/06/24 06:06:07;;;;;;;7.60;1.80;;;21.70;99.90;;;;;;5074234;28;20193;-86
2022/06/24 06:08:37;;;;;;;1.83;1.33;;;21.60;99.90;;;;;;5056628;28;20194;-86
2022/06/24 06:11:20;;;;;;;1.55;1.15;;;21.70;99.90;;;;;;5067291;28;20199;-86
2022/06/24 06:13:48;;;;;;;1.30;1.20;;;21.90;99.90;;;;;;5062783;28;20196;-87
2022/06/24 06:16:17;;;;;;;1.55;1.35;;;22.00;99.90;;;;;;5071965;28;20207;-86
2022/06/24 06:18:43;;;;;;;1.65;1.40;;;22.10;99.90;;;;;;5071516;28;20681;-86
2022/06/24 06:21:10;;;;;;;1.45;1.00;;;22.20;99.90;;;;;;5040125;28;20171;-86
2022/06/24 06:23:38;;;;;;;1.60;1.30;;;22.40;99.90;;;;;;5070399;28;20201;-87
2022/06/24 06:26:05;;;;;;;3.17;1.30;;;22.40;99.90;;;;;;5063506;28;20632;-86
2022/06/24 06:28:31;;;;;;;1.67;1.20;;;22.40;99.90;;;;;;5065595;28;20209;-86
2022/06/24 06:30:57;;;;;;;2.83;1.02;;;;;;;;;;5069792;28;20242;-86
2022/06/24 06:33:23;;;;;;;1.13;1.00;;;22.60;99.90;;;;;;5066378;28;20179;-85
2022/06/24 06:35:48;;;;;;;2.25;1.52;;;22.70;99.90;;;;;;5065125;28;20206;-85
2022/06/24 06:38:15;;;;;;;3.53;1.70;;;22.80;99.90;;;;;;5050304;28;20175;-85
2022/06/24 06:40:41;;;;;;;1.60;1.13;;;22.90;99.90;;;;;;5069187;28;20175;-86
2022/06/24 06:43:07;;;;;;;3.70;1.10;;;22.90;99.90;;;;;;5072708;28;20662;-85
2022/06/24 06:45:34;;;;;;;1.50;1.05;;;22.90;99.90;;;;;;5052209;28;20179;-84
2022/06/24 06:48:00;;;;;;;2.30;1.60;;;23.00;99.90;;;;;;5070305;28;20178;-85
2022/06/24 06:50:26;;;;;;;1.30;1.20;;;23.10;99.90;;;;;;5071403;28;20183;-85
2022/06/24 06:52:53;;;;;;;2.20;1.17;;;23.20;99.90;;;;;;5071202;28;20175;-85
2022/06/24 06:55:18;;;;;;;1.67;1.17;;;23.20;99.90;;;;;;5071127;28;20183;-85
2022/06/24 06:57:44;;;;;;;2.08;1.10;;;23.30;99.90;;;;;;5053821;28;20593;-85
2022/06/24 07:00:10;;;;;;;1.25;1.02;;;23.20;99.90;;;;;;5071068;28;20179;-86
2022/06/24 07:02:40;;;;;;;0.90;0.90;;;23.30;99.90;;;;;;5050115;28;20175;-83
2022/06/24 07:05:07;;;;;;;1.92;1.40;;;23.30;99.90;;;;;;5071445;28;20190;-85
2022/06/24 07:07:33;;;;;;;1.00;0.90;;;23.40;99.90;;;;;;5060362;28;20176;-85
2022/06/24 07:09:58;;;;;;;1.08;0.95;;;23.50;99.90;;;;;;5052245;28;20180;-85
2022/06/24 07:12:25;;;;;;;6.45;1.80;;;23.60;99.90;;;;;;5034808;28;20184;-84
2022/06/24 07:14:51;;;;;;;3.15;1.70;;;23.70;99.90;;;;;;5042371;28;20191;-85
2022/06/24 07:17:17;;;;;;;1.98;1.17;;;;;;;;;;5072559;28;20310;-86
2022/06/24 07:19:43;;;;;;;1.52;1.10;;;23.80;99.90;;;;;;5073116;28;20718;-85
2022/06/24 07:22:09;;;;;;;4.22;1.40;;;23.90;99.90;;;;;;5073952;28;20190;-84
2022/06/24 07:24:35;;;;;;;11.32;3.25;;;24.00;99.90;;;;;;5073492;28;20187;-84
2022/06/24 07:27:08;;;;;;;5.25;1.27;;;24.00;99.90;;;;;;5072999;28;20582;-84
2022/06/24 07:29:36;;;;;;;28.85;5.55;;;24.10;99.90;;;;;;5071604;28;20172;-85
2022/06/24 07:32:03;;;;;;;2.72;1.48;;;24.20;99.90;;;;;;5072009;28;20216;-84
2022/06/24 07:34:32;;;;;;;1.00;1.00;;;24.40;99.90;;;;;;5071934;28;20175;-85
2022/06/24 07:37:02;;;;;;;5.97;1.40;;;24.40;97.90;;;;;;5062921;28;20586;-84
2022/06/24 07:39:28;;;;;;;1.77;1.25;;;24.40;99.20;;;;;;5035491;28;20180;-84
2022/06/24 07:41:54;;;;;;;1.58;1.17;;;24.50;98.50;;;;;;5060752;28;20273;-85
2022/06/24 07:44:20;;;;;;;1.70;0.90;;;24.60;96.70;;;;;;5071806;28;20267;-86
2022/06/24 07:46:46;;;;;;;2.83;1.40;;;24.50;97.50;;;;;;5072206;28;20218;-85
2022/06/24 07:49:12;;;;;;;2.10;1.20;;;24.50;97.80;;;;;;5071540;28;20632;-86
2022/06/24 07:51:38;;;;;;;1.30;1.08;;;24.70;97.10;;;;;;5055113;28;20214;-84
2022/06/24 07:54:05;;;;;;;1.67;1.58;;;24.70;95.40;;;;;;5071909;28;20202;-84
2022/06/24 07:59:15;;;;;;;1.85;1.38;;;25.00;96.60;;;;;;5058087;28;20178;-84
2022/06/24 08:01:41;;;;;;;1.40;1.30;;;25.10;95.30;;;;;;5072688;28;20179;-84
2022/06/24 08:04:09;;;;;;;1.42;1.33;;;25.00;95.10;;;;;;5055204;28;20270;-84
2022/06/24 08:06:40;;;;;;;1.42;1.30;;;24.80;93.60;;;;;;5072913;28;20175;-84
2022/06/24 08:09:07;;;;;;;1.10;1.00;;;24.70;94.20;;;;;;5073108;28;20201;-84
2022/06/24 08:11:33;;;;;;;1.83;1.30;;;24.50;96.20;;;;;;5073069;28;20175;-85
2022/06/24 08:13:59;;;;;;;1.83;1.23;;;24.70;95.60;;;;;;5071891;28;20632;-85
2022/06/24 08:16:25;;;;;;;1.23;1.13;;;24.70;94.50;;;;;;5054773;28;20206;-86
2022/06/24 08:18:52;;;;;;;1.85;1.30;;;24.80;93.10;;;;;;5071727;28;20226;-85
2022/06/24 08:21:18;;;;;;;1.25;1.08;;;24.90;93.50;;;;;;5073074;28;20624;-86
2022/06/24 08:23:44;;;;;;;1.33;1.15;;;;;;;;;;5072827;28;20293;-86
2022/06/24 08:26:10;;;;;;;1.50;1.20;;;25.30;92.80;;;;;;5071464;28;20198;-85
2022/06/24 08:28:35;;;;;;;1.67;1.20;;;25.40;92.50;;;;;;5072649;28;20219;-85
2022/06/24 08:31:02;;;;;;;1.77;1.50;;;;;;;;;;5071643;28;20228;-84
2022/06/24 08:33:27;;;;;;;1.75;1.50;;;25.50;92.00;;;;;;5071442;28;20274;-85
2022/06/24 08:35:53;;;;;;;1.00;0.85;;;;;;;;;;5071644;28;20762;-85
2022/06/24 08:38:19;;;;;;;1.33;1.20;;;25.60;87.20;;;;;;5072936;28;20262;-84
2022/06/24 08:40:52;;;;;;;1.23;1.13;;;25.70;84.00;;;;;;5071673;28;20248;-85
2022/06/24 08:43:21;;;;;;;1.10;0.98;;;25.80;83.60;;;;;;5072374;28;20179;-85
2022/06/24 08:45:49;;;;;;;1.77;1.23;;;25.70;84.10;;;;;;5071301;28;20190;-86
2022/06/24 08:48:15;;;;;;;2.03;1.25;;;25.80;85.80;;;;;;5071553;28;20179;-85
2022/06/24 08:50:41;;;;;;;1.40;1.17;;;25.90;84.20;;;;;;5054686;28;20635;-84
2022/06/24 08:53:09;;;;;;;3.83;1.30;;;25.90;80.80;;;;;;5083523;28;20179;-84
2022/06/24 08:55:37;;;;;;;2.17;1.10;;;26.00;79.20;;;;;;5084163;28;20218;-83
2022/06/24 08:58:11;;;;;;;2.13;1.15;;;25.90;82.50;;;;;;5076194;28;20214;-85
2022/06/24 09:00:38;;;;;;;1.52;1.20;;;26.10;85.30;;;;;;5074198;28;20183;-83
2022/06/24 09:03:04;;;;;;;1.73;1.10;;;26.20;82.40;;;;;;5074547;28;20574;-84
2022/06/24 09:05:30;;;;;;;1.40;1.30;;;26.40;84.10;;;;;;5075806;28;20206;-84
2022/06/24 09:08:07;;;;;;;2.15;1.20;;;26.30;83.70;;;;;;5083823;28;20178;-84
2022/06/24 09:10:39;;;;;;;1.02;0.93;;;26.30;84.60;;;;;;5058315;28;20175;-84
2022/06/24 09:13:05;;;;;;;1.42;1.20;;;26.20;82.30;;;;;;5073603;28;20182;-83
2022/06/24 09:15:31;;;;;;;1.17;1.05;;;25.90;84.30;;;;;;5074560;28;20234;-87
2022/06/24 09:17:57;;;;;;;1.88;1.38;;;25.70;84.90;;;;;;5074430;28;20229;-84
2022/06/24 09:20:25;;;;;;;1.55;1.27;;;25.70;80.70;;;;;;5075951;28;20582;-84
2022/06/24 09:23:08;;;;;;;4.90;2.00;;;25.90;79.00;;;;;;5057150;28;20206;-84
2022/06/24 09:25:56;;;;;;;1.75;1.00;;;26.20;78.50;;;;;;5055955;28;20246;-86
2022/06/24 09:28:27;;;;;;;1.65;1.55;;;26.50;78.00;;;;;;5055955;28;20254;-84
2022/06/24 09:31:23;;;;;;;2.20;1.63;;;26.70;76.10;;;;;;5058157;28;20325;-85
2022/06/24 09:33:49;;;;;;;2.00;1.45;;;26.80;76.30;;;;;;5074280;28;20635;-84
2022/06/24 09:36:16;;;;;;;1.75;1.30;;;26.90;76.80;;;;;;5057539;28;20199;-85
2022/06/24 09:38:55;;;;;;;1.10;1.00;;;27.00;75.70;;;;;;5074208;28;20252;-85
2022/06/24 09:41:21;;;;;;;1.10;1.00;;;27.20;74.30;;;;;;5073412;28;20253;-85
2022/06/24 09:43:46;;;;;;;1.27;1.00;;;27.40;74.10;;;;;;5037345;28;20271;-85
2022/06/24 09:46:20;;;;;;;1.05;1.00;;;27.50;71.70;;;;;;5055431;28;20675;-84
2022/06/24 09:48:47;;;;;;;1.45;1.13;;;27.70;71.90;;;;;;5055060;28;20625;-84
2022/06/24 09:51:15;;;;;;;1.33;1.13;;;27.60;72.00;;;;;;5054334;28;20263;-84
2022/06/24 09:53:41;;;;;;;1.40;1.23;;;;;;;;;;5055280;28;20293;-85
2022/06/24 09:56:09;;;;;;;1.45;1.15;;;27.80;69.50;;;;;;5053947;28;20290;-84
2022/06/24 09:58:40;;;;;;;1.67;1.10;;;28.10;66.40;;;;;;5055375;28;20655;-84
2022/06/24 10:01:06;;;;;;;1.33;1.23;;;28.10;67.00;;;;;;5053818;28;20172;-84
2022/06/24 10:03:34;;;;;;;1.15;1.05;;;28.20;64.50;;;;;;5053752;28;20666;-85
2022/06/24 10:06:03;;;;;;;1.05;1.00;;;28.50;64.40;;;;;;5055478;28;20180;-84
2022/06/24 10:08:32;;;;;;;1.17;1.10;;;28.30;63.00;;;;;;5055531;28;20619;-86
2022/06/24 10:10:59;;;;;;;1.40;1.30;;;28.30;63.70;;;;;;5074132;28;20183;-84
2022/06/24 10:13:25;;;;;;;1.40;1.27;;;28.40;66.50;;;;;;5073995;28;20607;-85
2022/06/24 10:15:52;;;;;;;2.55;1.15;;;28.50;67.40;;;;;;5073132;28;20237;-84
2022/06/24 10:18:19;;;;;;;0.93;0.88;;;28.60;65.00;;;;;;5072878;28;20348;-84
2022/06/24 10:20:46;;;;;;;1.73;1.50;;;28.60;63.40;;;;;;5073007;28;20179;-85
2022/06/24 10:23:37;;;;;;;1.20;1.05;;;28.70;65.00;;;;;;5072912;28;20183;-86
2022/06/24 10:26:11;;;;;;;1.85;1.35;;;28.60;63.10;;;;;;5055560;28;20198;-85
2022/06/24 10:28:59;;;;;;;1.30;1.00;;;28.70;62.70;;;;;;5071162;28;20176;-86
2022/06/24 10:31:43;;;;;;;1.70;1.30;;;28.80;62.40;;;;;;5072721;28;20217;-85
2022/06/24 10:34:25;;;;;;;1.17;1.08;;;28.90;60.90;;;;;;5072521;28;20206;-86
2022/06/24 10:36:57;;;;;;;5.13;1.80;;;29.00;56.30;;;;;;5069914;28;20233;-86
2022/06/24 10:39:25;;;;;;;3.30;1.92;;;29.00;55.70;;;;;;5073427;28;20172;-85
2022/06/24 10:42:09;;;;;;;1.17;0.90;;;28.90;54.00;;;;;;5071204;28;20640;-89
2022/06/24 10:44:36;;;;;;;1.20;1.10;;;29.00;55.80;;;;;;5073948;28;20508;-85
2022/06/24 10:47:05;;;;;;;1.38;0.90;;;29.00;54.70;;;;;;5072691;28;20190;-86
2022/06/24 10:49:52;;;;;;;0.95;0.88;;;28.90;54.90;;;;;;5071762;28;20175;-87
2022/06/24 10:52:45;;;;;;;1.60;0.98;;;29.00;55.50;;;;;;5064289;28;20183;-87
2022/06/24 10:55:29;;;;;;;1.63;1.00;;;28.90;55.90;;;;;;5070781;28;20232;-85
2022/06/24 10:58:00;;;;;;;1.20;0.98;;;28.90;56.50;;;;;;5071679;28;20558;-84
2022/06/24 11:00:51;;;;;;;1.60;1.33;;;29.00;54.90;;;;;;5072213;28;20210;-85
2022/06/24 11:03:17;;;;;;;1.27;1.10;;;28.90;58.90;;;;;;5072006;28;20171;-85
2022/06/24 11:05:45;;;;;;;1.35;1.08;;;29.00;58.10;;;;;;5071785;28;20233;-84
2022/06/24 11:08:13;;;;;;;1.13;0.93;;;29.10;56.70;;;;;;5068514;28;20698;-83
2022/06/24 11:10:39;;;;;;;2.50;1.40;;;29.10;57.90;;;;;;5057735;28;20175;-83
2022/06/24 11:13:05;;;;;;;1.13;0.98;;;29.10;56.10;;;;;;5060886;28;20262;-83
2022/06/24 11:15:45;;;;;;;1.23;0.93;;;29.00;56.50;;;;;;5045477;28;20277;-84
2022/06/24 11:18:12;;;;;;;1.13;0.90;;;29.10;56.00;;;;;;5061546;28;20230;-84
2022/06/24 11:20:42;;;;;;;1.05;0.85;;;29.00;56.40;;;;;;5067704;28;20186;-83
2022/06/24 11:23:13;;;;;;;1.63;1.40;;;28.90;58.20;;;;;;5066019;28;20584;-83
2022/06/24 11:25:40;;;;;;;1.33;1.23;;;28.90;55.30;;;;;;5065315;28;20243;-85
2022/06/24 11:28:22;;;;;;;1.90;1.30;;;28.70;56.90;;;;;;5066090;28;20185;-84
2022/06/24 11:30:49;;;;;;;1.48;1.17;;;28.60;55.30;;;;;;5064882;28;20246;-87
2022/06/24 11:33:15;;;;;;;1.20;1.10;;;;;;;;;;5043285;28;20184;-85
2022/06/24 11:35:41;;;;;;;1.10;1.00;;;28.80;55.50;;;;;;5040180;28;20726;-85
2022/06/24 11:38:08;;;;;;;1.30;1.20;;;28.60;56.40;;;;;;5058504;28;20230;-84
2022/06/24 11:40:35;;;;;;;1.55;1.20;;;28.40;57.60;;;;;;5063153;28;20183;-85
2022/06/24 11:43:09;;;;;;;1.40;1.10;;;28.50;58.60;;;;;;5055708;28;20650;-85
2022/06/24 11:45:40;;;;;;;1.30;1.20;;;28.50;57.70;;;;;;5060969;28;20194;-84
2022/06/24 11:48:07;;;;;;;1.27;1.17;;;28.60;58.50;;;;;;5058972;28;20176;-84
2022/06/24 11:50:34;;;;;;;1.30;1.17;;;;;;;;;;5060865;28;20180;-85
2022/06/24 11:53:00;;;;;;;0.90;0.90;;;28.90;57.90;;;;;;5068779;28;20187;-85
2022/06/24 11:55:32;;;;;;;1.73;1.38;;;29.00;57.10;;;;;;5066331;28;20186;-85
2022/06/24 11:58:00;;;;;;;1.27;1.17;;;29.10;57.30;;;;;;5071347;28;20182;-85
2022/06/24 12:00:28;;;;;;;1.30;1.20;;;29.10;56.50;;;;;;5053406;28;20547;-86
2022/06/24 12:02:55;;;;;;;1.23;1.13;;;29.10;56.70;;;;;;5069067;28;20183;-85
2022/06/24 12:05:22;;;;;;;2.00;1.27;;;29.10;55.70;;;;;;5068117;28;20171;-83
2022/06/24 12:07:49;;;;;;;0.93;0.93;;;;;;;;;;5045967;28;20176;-84
2022/06/24 12:10:14;;;;;;;1.10;1.00;;;29.10;55.30;;;;;;5065743;28;20182;-84
2022/06/24 12:12:56;;;;;;;1.45;1.15;;;29.10;54.50;;;;;;5062564;28;20179;-86
2022/06/24 12:15:26;;;;;;;1.08;0.90;;;28.80;55.00;;;;;;5068674;28;20625;-84
2022/06/24 12:17:53;;;;;;;1.20;1.00;;;28.80;56.30;;;;;;5066726;28;20231;-83
2022/06/24 12:20:24;;;;;;;1.55;1.20;;;29.00;54.30;;;;;;5060076;28;20186;-84
2022/06/24 12:23:12;;;;;;;1.95;1.00;;;28.80;54.10;;;;;;5045617;28;20194;-84
2022/06/24 12:25:48;;;;;;;1.10;1.00;;;28.70;55.30;;;;;;5063289;28;20184;-84
2022/06/24 12:28:23;;;;;;;1.40;1.20;;;28.70;54.00;;;;;;5060945;28;20171;-84
2022/06/24 12:31:07;;;;;;;1.20;1.10;;;28.60;54.40;;;;;;5061271;28;20176;-84
2022/06/24 12:33:53;;;;;;;2.95;1.20;;;28.30;55.30;;;;;;5060426;28;20168;-85
2022/06/24 12:36:21;;;;;;;1.63;1.35;;;25.80;53.70;;;;;;5063022;28;20199;-83
2022/06/24 12:38:53;;;;;;;1.27;1.17;;;28.30;54.00;;;;;;5068863;28;20171;-82
2022/06/24 12:41:21;;;;;;;1.23;1.13;;;28.30;54.80;;;;;;5067297;28;20210;-83
2022/06/24 12:44:01;;;;;;;1.70;1.30;;;28.10;55.10;;;;;;5071833;28;20175;-82
2022/06/24 12:46:33;;;;;;;0.98;0.82;;;28.20;55.60;;;;;;5067358;28;20244;-84
2022/06/24 12:51:47;;;;;;;1.27;1.00;;;28.20;55.00;;;;;;5067844;28;20244;-84
2022/06/24 12:54:15;;;;;;;2.45;1.33;;;28.20;55.60;;;;;;5069642;28;20207;-85
2022/06/24 12:56:42;;;;;;;1.20;1.00;;;28.30;55.30;;;;;;5043785;28;20207;-85
2022/06/24 12:59:08;;;;;;;2.00;1.50;;;28.20;54.60;;;;;;5048104;28;20187;-84
2022/06/24 13:01:45;;;;;;;1.00;1.00;;;28.20;55.70;;;;;;5069621;28;20186;-83
2022/06/24 13:04:12;;;;;;;1.25;1.10;;;28.40;55.90;;;;;;5068462;28;20164;-83
2022/06/24 13:06:38;;;;;;;1.05;1.02;;;28.50;55.00;;;;;;5071488;28;20205;-83
2022/06/24 13:09:06;;;;;;;1.20;1.10;;;28.50;54.70;;;;;;5068902;28;20297;-86